Flight Track Log - Related Links

Times and Time Zones

All times are in EDT time to prevent confusion due to time zone crossing. See the N98DB flight status page for this flight to view local times or setup timezone preferences in your user account.

Time Position Orientation Groundspeed Altitude Reporting Facility
EDT Latitude Longitude Course Direction KTS MPH feet Rate Location/Type
Sun 08:48:06 PM 37.9414 -100.7156 107° East 89 102 3,500  Level Kansas City Center
Sun 08:49:06 PM 37.9328 -100.6806 96° East 57 66 4,400 850 Climbing Kansas City Center
Sun 08:50:06 PM 37.9289 -100.6356 92° East 100 115 5,200 900 Climbing Kansas City Center
Sun 08:51:06 PM 37.9272 -100.5853 92° East 129 148 6,200 850 Climbing Kansas City Center
Sun 08:52:06 PM 37.9258 -100.5325 90° East 142 163 6,900 750 Climbing Kansas City Center
Sun 08:53:06 PM 37.9261 -100.4853 94° East 142 163 7,700 793 Climbing Kansas City Center
Sun 08:54:07 PM 37.9228 -100.4297 92° East 147 169 8,500 850 Climbing Kansas City Center
Sun 08:55:06 PM 37.9214 -100.3689 94° East 154 177 9,400 857 Climbing Kansas City Center
Sun 08:56:06 PM 37.9181 -100.3133 92° East 154 177 10,200 800 Climbing Kansas City Center
Sun 08:57:06 PM 37.9164 -100.2606 94° East 160 184 11,000 400 Climbing Kansas City Center
Sun 08:58:06 PM 37.9131 -100.1972 95° East 168 193 11,000  Level Kansas City Center
Sun 08:59:06 PM 37.9083 -100.1231 94° East 181 208 11,000  Level Kansas City Center
Sun 09:00:06 PM 37.9050 -100.0569 94° East 181 208 11,000  Level Kansas City Center
Sun 09:01:07 PM 37.9017 -99.9936 91° East 181 208 11,000  Level Kansas City Center
Sun 09:02:06 PM 37.9006 -99.9278 95° East 181 208 11,000  Level Kansas City Center
Sun 09:03:06 PM 37.8956 -99.8536 93° East 181 208 11,000  Level Kansas City Center
Sun 09:04:06 PM 37.8925 -99.7850 92° East 181 208 11,000  Level Kansas City Center
Sun 09:05:06 PM 37.8908 -99.7244 94° East 181 208 11,000  Level Kansas City Center
Sun 09:06:06 PM 37.8875 -99.6583 94° East 181 208 11,000  Level Kansas City Center
Sun 09:07:06 PM 37.8842 -99.5897 94° East 181 208 11,000  Level Kansas City Center
Sun 09:08:06 PM 37.8808 -99.5236 93° East 181 208 11,000  Level Kansas City Center
Sun 09:09:07 PM 37.8789 -99.4683 94° East 181 208 11,000  Level Kansas City Center
Sun 09:10:06 PM 37.8753 -99.4022 94° East 181 208 11,000  Level Kansas City Center
Sun 09:11:07 PM 37.8717 -99.3389 94° East 181 208 11,000  Level Kansas City Center
Sun 09:12:06 PM 37.8681 -99.2728 94° East 181 208 11,000  Level Kansas City Center
Sun 09:13:06 PM 37.8644 -99.2094 92° East 181 208 11,000  Level Kansas City Center
Sun 09:14:06 PM 37.8628 -99.1436 94° East 181 208 11,000  Level Kansas City Center
Sun 09:15:07 PM 37.8589 -99.0803 92° East 181 208 11,000  Level Kansas City Center
Sun 09:16:06 PM 37.8572 -99.0169 94° East 181 208 11,000  Level Kansas City Center
Sun 09:17:06 PM 37.8533 -98.9536 97° East 181 208 11,000  Level Kansas City Center
Sun 09:18:06 PM 37.8472 -98.8903 90° East 181 208 11,000  Level Kansas City Center
Sun 09:19:07 PM 37.8475 -98.8269 92° East 181 208 11,000 -50 Level Kansas City Center
Sun 09:20:06 PM 37.8456 -98.7639 99° East 181 208 10,900 -50 Descending Kansas City Center
Sun 09:21:07 PM 37.8375 -98.7003 94° East 181 208 10,900  Level Kansas City Center
Sun 09:22:06 PM 37.8336 -98.6342 95° East 181 208 10,900  Level Kansas City Center
Sun 09:23:07 PM 37.8294 -98.5736 100° East 181 208 10,900  Level Kansas City Center
Sun 09:23:37 PM 37.8244 -98.5364 88° East 185 213 10,900  Level Kansas City Center
Sun 09:24:07 PM 37.8253 -98.5075 95° East 181 208 10,900  Level Kansas City Center
Sun 09:24:43 PM 37.8225 -98.4681 96° East 183 211 10,900 -309 Level Kansas City Center
Sun 09:25:44 PM 37.8164 -98.3942 95° East 191 220 10,400 -517 Descending Kansas City Center
Sun 09:26:39 PM 37.8122 -98.3333 94° East 203 234 9,900 -522 Descending Kansas City Center
Sun 09:27:39 PM 37.8083 -98.2544 94° East 206 237 9,400 -545 Descending Kansas City Center
Sun 09:28:40 PM 37.8044 -98.1831 97° East 209 241 8,800 -574 Descending Kansas City Center
Sun 09:29:34 PM 37.7981 -98.1144 82° East 206 237 8,300 -483 Descending Kansas City Center
Sun 09:30:07 PM 37.8011 -98.0858 95° East 202 232 8,100 -452 Descending Kansas City Center
Sun 09:31:07 PM 37.7969 -98.0197 96° East 197 227 7,600 -500 Descending Kansas City Center
Sun 09:32:07 PM 37.7906 -97.9486 95° East 197 227 7,100 -550 Descending Kansas City Center
Sun 09:33:07 PM 37.7861 -97.8828 92° East 197 227 6,500 -667 Descending Kansas City Center
Sun 09:33:37 PM 37.7853 -97.8433 94° East 186 214 6,100 -600 Descending Kansas City Center
Sun 09:34:07 PM 37.7839 -97.8169 92° East 197 227 5,900 -200 Descending Kansas City Center
Sun 09:34:37 PM 37.7828 -97.7800 94° East 181 208 5,900  Level Kansas City Center
Sun 09:35:07 PM 37.7814 -97.7564 92° East 185 213 5,900 -98 Level Kansas City Center
Sun 09:35:38 PM 37.7803 -97.7222 88° East 167 192 5,800 -391 Descending Kansas City Center
Sun 09:36:39 PM 37.7817 -97.6669 88° East 167 192 5,300 -446 Descending Kansas City Center
Sun 09:37:39 PM 37.7833 -97.6014 85° East 170 196 4,900 -446 Descending Kansas City Center
Sun 09:38:40 PM 37.7869 -97.5436 99° East 167 192 4,400 -446 Descending Kansas City Center
Sun 09:39:40 PM 37.7800 -97.4856 99° East 168 193 4,000 -248 Descending Kansas City Center
Sun 09:40:41 PM 37.7731 -97.4328 98° East 152 175 3,900 -148 Descending Kansas City Center
Sun 09:41:42 PM 37.7681 -97.3853 98° East 140 161 3,700 -197 Descending Kansas City Center

Login

Don't have an account? Register now (free) for customized features, flight alerts, and more!